Accueil
METAR-TAF:

METAR-TAF

Aéroports :

Aéroport international de Genève

Genève, Suisse

latitude: 46-15N, longitude: 006-08E, altitude: 420 m

Observation

Le bulletin a été fait il y a 29 minutes, à 14:20 UTC
Vent 8 kt de est/nord-est
Température 16°C
Humidité 59%
Pression 1022 hPa
Visibilité: 9000 m

METAR: LSGG 211420Z 06008KT 9000 NSC 16/08 Q1022 NOSIG

Heure: 16:49 (14:49 UTC)

Prévision

Le bulletin a été fait il y a 24 minutes, à 14:25 UTC
Prévision valable du 21 à 15 UTC au 22 à 21 UTC
Vent 10 kt de nord-est
Visibilité: 8000 m

TAF: LSGG 211425Z 2115/2221 04010KT 8000 NSC TX16/2115Z TN07/2206Z TX15/2215Z

Observations et prévisions météorologiques de plus de 4000 aéroports (messages METAR et TAF).

Les stations disponibles sont représentées par des disques jaunes et rouges sur la carte.

Passer la souris dessus pour voir le nom de la station.

Cliquer dessus pour voir les observations et prévisions météorologiques.

Pour changer de carte: cliquez sur les boutons verts avec une croix noire pour zoomer, sur le bouton vert avec un tiret pour effectuer un zoom arrière, ou sur les flèches vertes pour les cartes adjacentes.


METAR-TAF: